createdAt,value
2019-01-23T00:01:33.637Z,19.30
2019-01-23T00:04:04.592Z,18.90
2019-01-23T00:06:35.106Z,19.47
2019-01-23T00:09:07.503Z,20.23
2019-01-23T00:11:38.035Z,17.23
2019-01-23T00:14:09.144Z,18.73
2019-01-23T00:16:39.636Z,20.53
2019-01-23T00:19:10.140Z,20.57
2019-01-23T00:21:42.088Z,17.17
2019-01-23T00:24:12.607Z,18.60
2019-01-23T00:26:43.119Z,18.23
2019-01-23T00:29:13.680Z,14.67
2019-01-23T00:31:44.223Z,14.90
2019-01-23T00:34:14.794Z,17.37
2019-01-23T00:36:45.376Z,15.00
2019-01-23T00:39:17.406Z,15.97
2019-01-23T00:41:47.908Z,15.70
2019-01-23T00:44:18.402Z,16.00
2019-01-23T00:46:50.904Z,17.73
2019-01-23T00:49:21.393Z,15.53
2019-01-23T00:51:52.748Z,17.60
2019-01-23T00:54:23.697Z,17.30
2019-01-23T00:56:54.208Z,17.10
2019-01-23T00:59:24.718Z,18.60
2019-01-23T01:01:55.305Z,17.10
2019-01-23T01:04:25.897Z,16.07
2019-01-23T01:06:56.576Z,18.73
2019-01-23T01:09:27.159Z,15.53
2019-01-23T01:11:57.680Z,16.00
2019-01-23T01:14:28.209Z,16.13
2019-01-23T01:16:58.775Z,16.67
2019-01-23T01:19:29.319Z,17.13
2019-01-23T01:21:59.800Z,18.37
2019-01-23T01:24:30.314Z,19.10
2019-01-23T01:27:02.736Z,17.50
2019-01-23T01:29:35.159Z,16.93
2019-01-23T01:32:05.747Z,15.90
2019-01-23T01:34:36.242Z,16.43
2019-01-23T01:37:06.848Z,16.23
2019-01-23T01:39:37.341Z,13.70
2019-01-23T01:42:07.943Z,15.77
2019-01-23T01:44:38.428Z,17.80
2019-01-23T01:47:08.946Z,18.40
2019-01-23T01:49:39.462Z,17.53
2019-01-23T01:52:09.948Z,16.00
2019-01-23T01:54:40.549Z,17.10
2019-01-23T01:57:11.029Z,15.57
2019-01-23T01:59:41.559Z,17.03
2019-01-23T02:02:12.038Z,15.57
2019-01-23T02:04:42.568Z,17.30
2019-01-23T02:07:13.060Z,16.03
2019-01-23T02:09:45.519Z,15.53
2019-01-23T02:12:16.929Z,13.07
2019-01-23T02:14:47.413Z,14.23
2019-01-23T02:17:17.922Z,14.60
2019-01-23T02:19:48.474Z,14.37
2019-01-23T02:22:18.989Z,14.73
2019-01-23T02:24:49.489Z,15.07
2019-01-23T02:27:20.072Z,14.00
2019-01-23T02:29:50.558Z,13.03
2019-01-23T02:32:21.074Z,15.50
2019-01-23T02:34:51.562Z,13.90
2019-01-23T02:37:22.077Z,13.47
2019-01-23T02:39:52.583Z,12.47
2019-01-23T02:42:23.186Z,14.23
2019-01-23T02:44:53.691Z,11.77
2019-01-23T02:47:24.227Z,13.53
2019-01-23T02:49:54.726Z,11.97
2019-01-23T02:52:25.240Z,13.90
2019-01-23T02:54:55.729Z,12.70
2019-01-23T02:57:26.258Z,12.70
2019-01-23T02:59:56.744Z,12.63
2019-01-23T03:02:27.443Z,12.37
2019-01-23T03:04:57.963Z,12.40
2019-01-23T03:07:28.482Z,12.97
2019-01-23T03:09:59.274Z,12.80
2019-01-23T03:12:29.803Z,12.00
2019-01-23T03:15:01.306Z,12.30
2019-01-23T03:17:31.876Z,14.67
2019-01-23T03:20:02.410Z,13.57
2019-01-23T03:22:32.897Z,14.23
2019-01-23T03:25:05.340Z,13.10
2019-01-23T03:27:37.243Z,15.53
2019-01-23T03:30:12.494Z,15.63
2019-01-23T03:32:42.996Z,13.33
2019-01-23T03:35:14.437Z,14.30
2019-01-23T03:37:46.730Z,14.33
2019-01-23T03:40:20.379Z,15.23
2019-01-23T03:42:51.094Z,14.23
2019-01-23T03:45:21.694Z,13.43
2019-01-23T03:47:52.255Z,9.93
2019-01-23T03:50:24.308Z,13.00
2019-01-23T03:52:54.938Z,14.73
2019-01-23T03:55:25.448Z,11.97
2019-01-23T03:57:56.031Z,13.80
2019-01-23T04:00:26.518Z,13.20
2019-01-23T04:02:57.118Z,11.37
2019-01-23T04:05:27.732Z,12.40
2019-01-23T04:07:59.814Z,10.87
2019-01-23T04:10:30.304Z,13.30
2019-01-23T04:13:00.810Z,12.83
2019-01-23T04:15:31.403Z,14.47
2019-01-23T04:18:01.961Z,11.77
2019-01-23T04:20:32.524Z,11.60
2019-01-23T04:23:03.007Z,12.07
2019-01-23T04:25:33.666Z,12.00
2019-01-23T04:28:04.159Z,11.23
2019-01-23T04:30:34.725Z,11.40
2019-01-23T04:33:05.215Z,12.60
2019-01-23T04:35:35.765Z,11.30
2019-01-23T04:38:06.245Z,11.67
2019-01-23T04:40:36.781Z,13.50
2019-01-23T04:43:07.339Z,11.30
2019-01-23T04:45:39.058Z,14.17
2019-01-23T04:48:09.582Z,10.47
2019-01-23T04:50:59.871Z,12.80
2019-01-23T04:53:38.242Z,11.80
2019-01-23T04:56:08.771Z,11.60
2019-01-23T04:58:39.314Z,11.73
2019-01-23T05:01:09.882Z,9.03
2019-01-23T05:03:40.479Z,11.00
2019-01-23T05:06:10.949Z,14.00
2019-01-23T05:08:41.485Z,10.60
2019-01-23T05:11:11.975Z,11.93
2019-01-23T05:13:42.544Z,10.67
2019-01-23T05:16:13.028Z,10.83
2019-01-23T05:18:43.544Z,14.17
2019-01-23T05:21:14.055Z,13.57
2019-01-23T05:23:45.101Z,12.70
2019-01-23T05:26:15.633Z,13.00
2019-01-23T05:28:46.119Z,17.50
2019-01-23T05:31:16.636Z,41.13
2019-01-23T05:33:47.239Z,46.33
2019-01-23T05:36:17.736Z,41.07
2019-01-23T05:38:48.251Z,17.83
2019-01-23T05:41:18.808Z,15.10
2019-01-23T05:43:49.350Z,12.67
2019-01-23T05:46:21.374Z,12.93
2019-01-23T05:48:51.892Z,14.20
2019-01-23T05:51:22.555Z,15.17
2019-01-23T05:53:53.052Z,13.20
2019-01-23T05:56:26.251Z,15.30
2019-01-23T05:58:56.754Z,14.00
2019-01-23T06:01:27.437Z,17.10
2019-01-23T06:03:58.081Z,14.53
2019-01-23T06:06:28.909Z,15.53
2019-01-23T06:08:59.489Z,14.30
2019-01-23T06:11:29.971Z,12.90
2019-01-23T06:14:00.489Z,48.93
2019-01-23T06:16:32.211Z,21.23
2019-01-23T06:19:02.731Z,14.17
2019-01-23T06:21:33.262Z,15.07
2019-01-23T06:24:24.635Z,13.00
2019-01-23T06:26:56.147Z,14.10
2019-01-23T06:29:26.678Z,11.90
2019-01-23T06:31:57.183Z,14.60
2019-01-23T06:34:27.699Z,15.50
2019-01-23T06:36:59.333Z,13.80
2019-01-23T06:39:29.992Z,14.40
2019-01-23T06:42:00.614Z,14.07
2019-01-23T06:44:31.133Z,15.90
2019-01-23T06:47:01.626Z,15.13
2019-01-23T06:49:32.130Z,15.77
2019-01-23T06:52:02.659Z,18.53
2019-01-23T06:54:33.168Z,18.40
2019-01-23T06:57:03.719Z,17.90
2019-01-23T06:59:34.368Z,32.97
2019-01-23T07:02:05.998Z,19.83
2019-01-23T07:04:36.494Z,16.47
2019-01-23T07:07:07.009Z,15.90
2019-01-23T07:09:37.497Z,15.83
2019-01-23T07:12:08.042Z,12.30
2019-01-23T07:14:38.528Z,17.77
2019-01-23T07:17:09.048Z,14.80
2019-01-23T07:19:39.538Z,15.00
2019-01-23T07:22:10.057Z,14.50
2019-01-23T07:24:41.420Z,12.53
2019-01-23T07:27:11.928Z,13.40
2019-01-23T07:29:42.420Z,15.67
2019-01-23T07:32:13.021Z,13.00
2019-01-23T07:34:43.518Z,12.73
2019-01-23T07:37:14.046Z,11.47
2019-01-23T07:39:44.533Z,12.63
2019-01-23T07:42:15.055Z,12.53
2019-01-23T07:44:45.553Z,21.80
2019-01-23T07:47:16.070Z,19.73
2019-01-23T07:49:46.561Z,21.87
2019-01-23T07:52:17.086Z,17.03
2019-01-23T07:54:47.593Z,13.50
2019-01-23T07:57:18.117Z,16.07
2019-01-23T07:59:51.836Z,12.97
2019-01-23T08:02:22.344Z,14.03
2019-01-23T08:04:52.850Z,15.97
2019-01-23T08:07:23.373Z,17.10
2019-01-23T08:09:53.882Z,14.57
2019-01-23T08:12:24.438Z,14.23
2019-01-23T08:14:54.944Z,13.23
2019-01-23T08:17:25.444Z,13.13
2019-01-23T08:19:55.943Z,17.30
2019-01-23T08:22:26.495Z,13.27
2019-01-23T08:24:56.990Z,14.17
2019-01-23T08:27:28.622Z,12.00
2019-01-23T08:29:59.098Z,13.73
2019-01-23T08:32:29.613Z,46.80
2019-01-23T08:35:00.230Z,26.90
2019-01-23T08:37:30.693Z,13.43
2019-01-23T08:40:01.204Z,11.83
2019-01-23T08:42:31.720Z,12.63
2019-01-23T08:45:02.196Z,10.77
2019-01-23T08:47:32.731Z,11.80
2019-01-23T08:50:04.774Z,11.80
2019-01-23T08:52:35.251Z,13.10
2019-01-23T08:55:07.793Z,21.57
2019-01-23T08:57:38.270Z,20.33
2019-01-23T09:00:15.986Z,20.57
2019-01-23T09:02:46.602Z,13.83
2019-01-23T09:05:17.361Z,14.57
2019-01-23T09:07:47.830Z,13.30
2019-01-23T09:10:29.932Z,13.50
2019-01-23T09:13:01.010Z,14.83
2019-01-23T09:15:31.630Z,17.10
2019-01-23T09:18:03.735Z,16.60
2019-01-23T09:20:34.205Z,17.20
2019-01-23T09:23:04.849Z,18.50
2019-01-23T09:25:38.081Z,17.80
2019-01-23T09:28:08.583Z,18.20
2019-01-23T09:30:52.703Z,17.30
2019-01-23T09:33:30.442Z,18.23
2019-01-23T09:36:26.653Z,17.87
2019-01-23T09:39:25.052Z,16.20
2019-01-23T09:42:33.264Z,17.20
2019-01-23T09:45:55.876Z,16.93
2019-01-23T09:48:36.784Z,16.63
2019-01-23T09:51:26.383Z,16.63
2019-01-23T09:54:04.545Z,17.97
2019-01-23T09:56:35.010Z,17.67
2019-01-23T09:59:05.635Z,17.30
2019-01-23T10:01:36.138Z,17.30
2019-01-23T10:04:07.316Z,18.83
2019-01-23T10:06:37.791Z,17.00
2019-01-23T10:09:09.788Z,16.70
2019-01-23T10:11:41.814Z,16.60
2019-01-23T10:14:12.320Z,17.00
2019-01-23T10:16:42.855Z,17.50
2019-01-23T10:19:13.399Z,17.50
2019-01-23T10:21:44.678Z,17.27
2019-01-23T10:24:17.154Z,16.27
2019-01-23T10:26:47.650Z,16.47
2019-01-23T10:29:18.118Z,18.10
2019-01-23T10:31:48.633Z,16.43
2019-01-23T10:34:19.108Z,16.40
2019-01-23T10:36:50.935Z,18.10
2019-01-23T10:39:21.415Z,16.50
2019-01-23T10:41:51.926Z,16.30
2019-01-23T10:44:23.958Z,29.03
2019-01-23T10:46:54.427Z,37.50
2019-01-23T10:49:24.936Z,18.90
2019-01-23T10:51:56.882Z,16.00
2019-01-23T10:54:27.469Z,16.80
2019-01-23T10:56:57.928Z,16.50
2019-01-23T10:59:28.449Z,18.27
2019-01-23T11:01:58.944Z,17.80
2019-01-23T11:04:29.429Z,18.13
2019-01-23T11:07:01.807Z,19.43
2019-01-23T11:09:32.289Z,18.67
2019-01-23T11:12:02.856Z,19.50
2019-01-23T11:14:33.330Z,21.20
2019-01-23T11:17:03.870Z,22.23
2019-01-23T11:19:34.398Z,21.27
2019-01-23T11:22:05.233Z,19.67
2019-01-23T11:24:35.705Z,22.13
2019-01-23T11:27:06.351Z,22.00
2019-01-23T11:29:36.817Z,81.60
2019-01-23T11:32:07.391Z,60.23
2019-01-23T11:34:37.915Z,36.57
2019-01-23T11:37:08.397Z,21.37
2019-01-23T11:39:38.895Z,22.47
2019-01-23T11:42:09.463Z,22.23
2019-01-23T11:44:39.986Z,20.50
2019-01-23T11:47:10.603Z,21.00
2019-01-23T11:49:41.171Z,20.97
2019-01-23T11:52:11.668Z,21.37
2019-01-23T11:54:42.135Z,20.60
2019-01-23T11:57:12.707Z,21.77
2019-01-23T11:59:43.192Z,21.47
2019-01-23T12:02:13.831Z,24.20
2019-01-23T12:04:44.351Z,21.10
2019-01-23T12:07:14.834Z,21.57
2019-01-23T12:09:45.342Z,19.40
2019-01-23T12:12:15.827Z,19.53
2019-01-23T12:14:46.315Z,19.47
2019-01-23T12:17:16.899Z,18.60
2019-01-23T12:19:47.594Z,19.20
2019-01-23T12:22:19.635Z,20.70
2019-01-23T12:24:50.108Z,18.60
2019-01-23T12:27:20.863Z,18.73
2019-01-23T12:29:52.876Z,20.87
2019-01-23T12:32:23.394Z,19.50
2019-01-23T12:34:53.931Z,19.60
2019-01-23T12:37:24.428Z,17.90
2019-01-23T12:39:54.904Z,18.67
2019-01-23T12:42:25.424Z,18.33
2019-01-23T12:44:55.968Z,18.80
2019-01-23T12:47:26.585Z,19.40
2019-01-23T12:49:57.059Z,21.17
2019-01-23T12:52:27.588Z,20.80
2019-01-23T12:54:58.921Z,22.30
2019-01-23T12:57:31.061Z,20.33
2019-01-23T13:00:05.409Z,20.50
2019-01-23T13:02:33.766Z,19.70
2019-01-23T13:05:06.254Z,20.77
2019-01-23T13:07:36.841Z,26.07
2019-01-23T13:10:14.646Z,24.30
2019-01-23T13:12:45.595Z,20.40
2019-01-23T13:15:22.267Z,21.93
2019-01-23T13:17:52.851Z,23.73
2019-01-23T13:20:25.933Z,21.07
2019-01-23T13:22:56.516Z,23.20
2019-01-23T13:25:29.429Z,21.07
2019-01-23T13:28:02.231Z,19.93
2019-01-23T13:30:32.794Z,20.57
2019-01-23T13:33:03.472Z,18.80
2019-01-23T13:35:38.792Z,21.60
2019-01-23T13:38:12.888Z,21.93
2019-01-23T13:40:43.455Z,19.57
2019-01-23T13:43:14.064Z,21.97
2019-01-23T13:45:44.564Z,23.77
2019-01-23T13:48:15.206Z,25.93
2019-01-23T13:50:45.754Z,24.70
2019-01-23T13:53:16.251Z,26.73
2019-01-23T13:55:46.760Z,26.17
2019-01-23T13:58:17.236Z,29.93
2019-01-23T14:00:47.819Z,28.53
2019-01-23T14:03:18.290Z,32.07
2019-01-23T14:05:48.791Z,32.60
2019-01-23T14:08:19.342Z,28.30
2019-01-23T14:10:49.858Z,28.10
2019-01-23T14:13:20.318Z,30.07
2019-01-23T14:15:50.902Z,28.67
2019-01-23T14:18:21.450Z,30.20
2019-01-23T14:20:51.986Z,32.70
2019-01-23T14:23:22.464Z,29.40
2019-01-23T14:25:52.971Z,26.53
2019-01-23T14:28:23.441Z,27.60
2019-01-23T14:30:54.395Z,27.73
2019-01-23T14:33:24.895Z,28.13
2019-01-23T14:35:55.393Z,28.73
2019-01-23T14:38:25.902Z,27.23
2019-01-23T14:40:56.400Z,27.77
2019-01-23T14:43:26.962Z,27.60
2019-01-23T14:45:57.446Z,28.17
2019-01-23T14:48:27.944Z,28.87
2019-01-23T14:50:58.585Z,25.97
2019-01-23T14:53:29.055Z,26.83
2019-01-23T14:55:59.549Z,27.50
2019-01-23T14:58:30.687Z,27.60
2019-01-23T15:01:01.203Z,26.17
2019-01-23T15:03:31.691Z,28.07
2019-01-23T15:06:02.254Z,28.37
2019-01-23T15:08:32.739Z,31.13
2019-01-23T15:11:03.231Z,29.63
2019-01-23T15:13:33.766Z,29.17
2019-01-23T15:16:04.406Z,31.10
2019-01-23T15:18:34.877Z,31.80
2019-01-23T15:21:09.503Z,35.73
2019-01-23T15:23:39.958Z,34.90
2019-01-23T15:26:10.477Z,34.00
2019-01-23T15:28:41.016Z,35.37
2019-01-23T15:31:11.526Z,35.67
2019-01-23T15:33:41.997Z,36.17
2019-01-23T15:36:14.116Z,39.47
2019-01-23T15:38:44.642Z,40.10
2019-01-23T15:41:15.119Z,40.30
2019-01-23T15:43:45.588Z,40.17
2019-01-23T15:46:16.223Z,42.30
2019-01-23T15:48:46.691Z,39.50
2019-01-23T15:51:18.298Z,39.80
2019-01-23T15:53:48.772Z,37.00
2019-01-23T15:56:19.363Z,37.50
2019-01-23T15:58:49.922Z,35.13
2019-01-23T16:01:20.439Z,37.47
2019-01-23T16:03:50.934Z,36.77
2019-01-23T16:06:21.419Z,34.00
2019-01-23T16:08:51.922Z,37.87
2019-01-23T16:11:22.431Z,36.97
2019-01-23T16:13:52.923Z,37.57
2019-01-23T16:16:24.980Z,35.50
2019-01-23T16:18:55.529Z,37.63
2019-01-23T16:21:26.056Z,36.17
2019-01-23T16:23:57.532Z,37.83
2019-01-23T16:26:28.078Z,48.27
2019-01-23T16:28:58.603Z,40.30
2019-01-23T16:31:29.077Z,37.07
2019-01-23T16:33:59.571Z,35.80
2019-01-23T16:36:30.039Z,35.60
2019-01-23T16:39:00.538Z,37.40
2019-01-23T16:41:32.097Z,38.97
2019-01-23T16:44:02.610Z,43.47
2019-01-23T16:46:33.675Z,57.27
2019-01-23T16:49:04.246Z,57.27
2019-01-23T16:51:34.812Z,56.07
2019-01-23T16:54:06.865Z,54.07
2019-01-23T16:56:37.411Z,50.40
2019-01-23T16:59:08.093Z,48.67
2019-01-23T17:01:38.639Z,47.10
2019-01-23T17:04:10.672Z,50.50
2019-01-23T17:06:41.208Z,40.70
2019-01-23T17:09:11.877Z,41.17
2019-01-23T17:11:42.389Z,41.37
2019-01-23T17:14:12.864Z,43.43
2019-01-23T17:16:44.533Z,47.80
2019-01-23T17:19:15.034Z,46.77
2019-01-23T17:21:45.537Z,42.17
2019-01-23T17:24:16.027Z,45.43
2019-01-23T17:26:46.617Z,41.47
2019-01-23T17:29:17.093Z,44.77
2019-01-23T17:31:49.237Z,40.17
2019-01-23T17:34:19.740Z,42.73
2019-01-23T17:36:50.218Z,41.70
2019-01-23T17:39:20.727Z,40.73
2019-01-23T17:41:51.238Z,42.67
2019-01-23T17:44:21.792Z,44.57
2019-01-23T17:46:53.413Z,43.47
2019-01-23T17:49:23.915Z,42.63
2019-01-23T17:51:56.357Z,44.10
2019-01-23T17:54:28.373Z,43.93
2019-01-23T17:56:59.018Z,45.60
2019-01-23T17:59:31.218Z,43.80
2019-01-23T18:02:02.163Z,47.20
2019-01-23T18:04:33.205Z,45.20
2019-01-23T18:07:03.840Z,46.83
2019-01-23T18:09:34.310Z,47.37
2019-01-23T18:12:07.028Z,48.77
2019-01-23T18:14:37.531Z,47.37
2019-01-23T18:17:08.086Z,46.50
2019-01-23T18:19:38.613Z,44.17
2019-01-23T18:22:09.112Z,44.57
2019-01-23T18:24:39.718Z,42.43
2019-01-23T18:27:10.256Z,43.57
2019-01-23T18:29:40.921Z,42.60
2019-01-23T18:32:11.500Z,43.90
2019-01-23T18:34:55.562Z,38.00
2019-01-23T18:37:30.777Z,43.40
2019-01-23T18:40:17.133Z,45.97
2019-01-23T18:42:54.830Z,43.83
2019-01-23T18:45:30.264Z,41.80
2019-01-23T18:48:16.830Z,35.00
2019-01-23T18:51:06.183Z,40.60
2019-01-23T18:53:36.691Z,44.63
2019-01-23T18:56:07.239Z,44.13
2019-01-23T18:58:37.758Z,40.67
2019-01-23T19:01:08.333Z,40.60
2019-01-23T19:03:38.820Z,38.30
2019-01-23T19:06:09.391Z,37.60
2019-01-23T19:08:39.871Z,37.30
2019-01-23T19:11:11.479Z,42.60
2019-01-23T19:13:41.997Z,63.10
2019-01-23T19:16:14.672Z,53.30
2019-01-23T19:18:45.923Z,45.60
2019-01-23T19:21:16.450Z,43.37
2019-01-23T19:23:47.808Z,44.37
2019-01-23T19:26:18.326Z,45.27
2019-01-23T19:28:48.805Z,41.30
2019-01-23T19:31:19.337Z,45.00
2019-01-23T19:33:49.884Z,42.50
2019-01-23T19:36:20.381Z,43.23
2019-01-23T19:38:50.900Z,44.27
2019-01-23T19:41:21.368Z,43.57
2019-01-23T19:43:51.875Z,47.50
2019-01-23T19:46:22.352Z,46.63
2019-01-23T19:48:52.857Z,55.47
2019-01-23T19:51:23.372Z,57.17
2019-01-23T19:53:53.860Z,48.83
2019-01-23T19:56:24.393Z,46.10
2019-01-23T19:58:54.940Z,43.50
2019-01-23T20:01:25.612Z,47.50
2019-01-23T20:03:56.172Z,45.87
2019-01-23T20:06:26.714Z,48.67
2019-01-23T20:08:57.195Z,47.50
2019-01-23T20:11:27.766Z,48.50
2019-01-23T20:13:58.235Z,47.90
2019-01-23T20:16:28.741Z,50.00
2019-01-23T20:19:00.745Z,54.03
2019-01-23T20:21:31.318Z,51.13
2019-01-23T20:24:01.778Z,44.57
2019-01-23T20:26:32.298Z,44.93
2019-01-23T20:29:05.634Z,46.13
2019-01-23T20:31:36.149Z,45.80
2019-01-23T20:34:07.293Z,44.70
2019-01-23T20:36:37.769Z,44.53
2019-01-23T20:39:10.728Z,45.77
2019-01-23T20:41:41.275Z,46.60
2019-01-23T20:44:11.789Z,46.07
2019-01-23T20:46:42.334Z,45.30
2019-01-23T20:49:12.839Z,45.00
2019-01-23T20:51:43.313Z,45.57
2019-01-23T20:54:13.812Z,45.30
2019-01-23T20:56:44.356Z,48.50
2019-01-23T20:59:14.834Z,47.30
2019-01-23T21:01:45.346Z,47.37
2019-01-23T21:04:15.821Z,47.63
2019-01-23T21:06:46.437Z,47.23
2019-01-23T21:09:17.810Z,33.33
2019-01-23T21:11:48.332Z,31.00
2019-01-23T21:14:18.805Z,21.67
2019-01-23T21:16:49.328Z,18.70
2019-01-23T21:19:19.803Z,17.70
2019-01-23T21:21:50.281Z,16.30
2019-01-23T21:24:20.812Z,16.10
2019-01-23T21:26:51.301Z,19.03
2019-01-23T21:29:21.787Z,16.70
2019-01-23T21:31:52.291Z,17.13
2019-01-23T21:34:22.766Z,17.90
2019-01-23T21:36:53.261Z,16.33
2019-01-23T21:39:23.731Z,15.97
2019-01-23T21:41:54.251Z,17.00
2019-01-23T21:44:24.718Z,17.10
2019-01-23T21:46:55.234Z,16.87
2019-01-23T21:49:25.711Z,18.53
2019-01-23T21:51:56.225Z,16.47
2019-01-23T21:54:26.775Z,17.67
2019-01-23T21:56:57.342Z,20.77
2019-01-23T21:59:27.811Z,25.17
2019-01-23T22:01:58.387Z,22.23
2019-01-23T22:04:28.878Z,20.10
2019-01-23T22:06:59.360Z,22.87
2019-01-23T22:09:29.867Z,21.07
2019-01-23T22:12:00.345Z,17.93
2019-01-23T22:14:30.851Z,18.80
2019-01-23T22:17:01.324Z,17.60
2019-01-23T22:19:32.064Z,20.40
2019-01-23T22:22:02.533Z,18.20
2019-01-23T22:24:33.029Z,19.20
2019-01-23T22:27:03.500Z,23.63
2019-01-23T22:29:34.017Z,22.47
2019-01-23T22:32:04.853Z,18.90
2019-01-23T22:34:35.362Z,18.70
2019-01-23T22:37:05.902Z,17.67
2019-01-23T22:39:36.393Z,17.07
2019-01-23T22:42:06.930Z,17.63
2019-01-23T22:44:37.433Z,19.33
2019-01-23T22:47:07.894Z,18.63
2019-01-23T22:49:38.396Z,18.53
2019-01-23T22:52:08.858Z,17.67
2019-01-23T22:54:39.396Z,17.73
2019-01-23T22:57:09.859Z,16.00
2019-01-23T22:59:40.361Z,19.30
2019-01-23T23:02:10.837Z,19.03
2019-01-23T23:04:41.350Z,19.10
2019-01-23T23:07:11.829Z,18.60
2019-01-23T23:09:42.339Z,19.00
2019-01-23T23:12:12.803Z,18.20
2019-01-23T23:14:43.376Z,20.57
2019-01-23T23:17:13.845Z,26.67
2019-01-23T23:19:44.388Z,30.20
2019-01-23T23:22:14.867Z,35.40
2019-01-23T23:24:45.370Z,33.40
2019-01-23T23:27:15.845Z,33.67
2019-01-23T23:29:46.369Z,36.60
2019-01-23T23:32:16.833Z,35.77
2019-01-23T23:34:47.350Z,38.00
2019-01-23T23:37:17.820Z,37.30
2019-01-23T23:39:48.319Z,33.77
2019-01-23T23:42:18.864Z,32.67
2019-01-23T23:44:49.440Z,36.00
2019-01-23T23:47:19.935Z,33.60
2019-01-23T23:49:50.435Z,32.63
2019-01-23T23:52:20.917Z,32.67
2019-01-23T23:54:51.500Z,28.70
2019-01-23T23:57:22.077Z,29.90
2019-01-23T23:59:52.545Z,33.03
